sensor_id;sensor_type;location;lat;lon;timestamp;P1;durP1;ratioP1;P2;durP2;ratioP2
78820;SDS011;68171;13.882;99.692;2023-06-26T00:00:02;2.90;;;1.08;;
78820;SDS011;68171;13.882;99.692;2023-06-26T00:01:08;3.70;;;1.00;;
78820;SDS011;68171;13.882;99.692;2023-06-26T00:02:15;4.13;;;1.10;;
78820;SDS011;68171;13.882;99.692;2023-06-26T00:03:22;3.92;;;1.15;;
78820;SDS011;68171;13.882;99.692;2023-06-26T00:04:27;3.72;;;1.08;;
78820;SDS011;68171;13.882;99.692;2023-06-26T00:05:33;3.35;;;1.10;;
78820;SDS011;68171;13.882;99.692;2023-06-26T00:06:38;5.03;;;1.10;;
78820;SDS011;68171;13.882;99.692;2023-06-26T00:07:44;6.47;;;1.00;;
78820;SDS011;68171;13.882;99.692;2023-06-26T00:08:49;4.97;;;1.23;;
78820;SDS011;68171;13.882;99.692;2023-06-26T00:09:55;4.13;;;1.10;;
78820;SDS011;68171;13.882;99.692;2023-06-26T00:11:01;6.70;;;1.10;;
78820;SDS011;68171;13.882;99.692;2023-06-26T00:12:07;3.40;;;1.25;;
78820;SDS011;68171;13.882;99.692;2023-06-26T00:13:12;4.72;;;1.38;;
78820;SDS011;68171;13.882;99.692;2023-06-26T00:14:19;5.30;;;1.52;;
78820;SDS011;68171;13.882;99.692;2023-06-26T00:15:23;4.75;;;1.30;;
78820;SDS011;68171;13.882;99.692;2023-06-26T00:16:34;5.20;;;1.67;;
78820;SDS011;68171;13.882;99.692;2023-06-26T00:17:41;5.00;;;2.22;;
78820;SDS011;68171;13.882;99.692;2023-06-26T00:18:48;5.80;;;1.70;;
78820;SDS011;68171;13.882;99.692;2023-06-26T00:19:53;3.60;;;1.50;;
78820;SDS011;68171;13.882;99.692;2023-06-26T00:20:59;6.23;;;1.70;;
78820;SDS011;68171;13.882;99.692;2023-06-26T00:22:04;4.65;;;1.80;;
78820;SDS011;68171;13.882;99.692;2023-06-26T00:23:11;4.65;;;2.03;;
78820;SDS011;68171;13.882;99.692;2023-06-26T00:24:19;3.38;;;1.50;;
78820;SDS011;68171;13.882;99.692;2023-06-26T00:25:24;6.30;;;1.50;;
78820;SDS011;68171;13.882;99.692;2023-06-26T00:26:30;4.47;;;1.40;;
78820;SDS011;68171;13.882;99.692;2023-06-26T00:27:35;5.60;;;1.67;;
78820;SDS011;68171;13.882;99.692;2023-06-26T00:28:41;5.55;;;1.50;;
78820;SDS011;68171;13.882;99.692;2023-06-26T00:29:47;5.30;;;1.50;;
78820;SDS011;68171;13.882;99.692;2023-06-26T00:30:52;4.53;;;1.42;;
78820;SDS011;68171;13.882;99.692;2023-06-26T00:31:58;5.50;;;1.70;;
78820;SDS011;68171;13.882;99.692;2023-06-26T00:33:05;4.47;;;1.60;;
78820;SDS011;68171;13.882;99.692;2023-06-26T00:34:11;4.63;;;1.77;;
78820;SDS011;68171;13.882;99.692;2023-06-26T00:35:16;5.32;;;1.83;;
78820;SDS011;68171;13.882;99.692;2023-06-26T00:36:23;7.28;;;2.25;;
78820;SDS011;68171;13.882;99.692;2023-06-26T00:37:29;6.75;;;2.95;;
78820;SDS011;68171;13.882;99.692;2023-06-26T00:38:35;4.82;;;1.50;;
78820;SDS011;68171;13.882;99.692;2023-06-26T00:39:40;5.10;;;2.10;;
78820;SDS011;68171;13.882;99.692;2023-06-26T00:40:46;4.45;;;1.52;;
78820;SDS011;68171;13.882;99.692;2023-06-26T00:41:51;4.70;;;1.60;;
78820;SDS011;68171;13.882;99.692;2023-06-26T00:42:58;4.90;;;1.70;;
78820;SDS011;68171;13.882;99.692;2023-06-26T00:44:03;3.97;;;1.63;;
78820;SDS011;68171;13.882;99.692;2023-06-26T00:45:09;4.82;;;1.75;;
78820;SDS011;68171;13.882;99.692;2023-06-26T00:46:14;4.93;;;1.35;;
78820;SDS011;68171;13.882;99.692;2023-06-26T00:47:21;4.93;;;1.45;;
78820;SDS011;68171;13.882;99.692;2023-06-26T00:48:27;4.75;;;1.63;;
78820;SDS011;68171;13.882;99.692;2023-06-26T00:49:33;5.45;;;2.00;;
78820;SDS011;68171;13.882;99.692;2023-06-26T00:50:38;5.80;;;2.20;;
78820;SDS011;68171;13.882;99.692;2023-06-26T00:51:44;6.75;;;2.28;;
78820;SDS011;68171;13.882;99.692;2023-06-26T00:52:49;8.45;;;2.50;;
78820;SDS011;68171;13.882;99.692;2023-06-26T00:53:57;4.77;;;2.00;;
78820;SDS011;68171;13.882;99.692;2023-06-26T00:55:03;3.97;;;1.88;;
78820;SDS011;68171;13.882;99.692;2023-06-26T00:56:10;5.22;;;1.73;;
78820;SDS011;68171;13.882;99.692;2023-06-26T00:57:16;5.43;;;1.90;;
78820;SDS011;68171;13.882;99.692;2023-06-26T00:58:22;4.90;;;1.88;;
78820;SDS011;68171;13.882;99.692;2023-06-26T00:59:28;5.57;;;1.90;;
78820;SDS011;68171;13.882;99.692;2023-06-26T01:00:34;4.65;;;1.70;;
78820;SDS011;68171;13.882;99.692;2023-06-26T01:01:39;4.28;;;1.65;;
78820;SDS011;68171;13.882;99.692;2023-06-26T01:02:45;5.72;;;2.00;;
78820;SDS011;68171;13.882;99.692;2023-06-26T01:03:53;3.95;;;1.70;;
78820;SDS011;68171;13.882;99.692;2023-06-26T01:04:59;6.07;;;1.70;;
78820;SDS011;68171;13.882;99.692;2023-06-26T01:06:09;5.22;;;2.10;;
78820;SDS011;68171;13.882;99.692;2023-06-26T01:07:16;4.10;;;1.40;;
78820;SDS011;68171;13.882;99.692;2023-06-26T01:08:23;4.15;;;1.30;;
78820;SDS011;68171;13.882;99.692;2023-06-26T01:09:29;4.20;;;1.48;;
78820;SDS011;68171;13.882;99.692;2023-06-26T01:10:35;5.88;;;1.60;;
78820;SDS011;68171;13.882;99.692;2023-06-26T01:11:42;4.55;;;1.40;;
78820;SDS011;68171;13.882;99.692;2023-06-26T01:12:46;4.40;;;1.25;;
78820;SDS011;68171;13.882;99.692;2023-06-26T01:13:52;3.72;;;1.10;;
78820;SDS011;68171;13.882;99.692;2023-06-26T01:14:58;4.22;;;1.10;;
78820;SDS011;68171;13.882;99.692;2023-06-26T01:16:05;4.17;;;1.07;;
78820;SDS011;68171;13.882;99.692;2023-06-26T01:17:10;4.72;;;2.20;;
78820;SDS011;68171;13.882;99.692;2023-06-26T01:18:17;4.68;;;1.20;;
78820;SDS011;68171;13.882;99.692;2023-06-26T01:19:26;3.05;;;1.10;;
78820;SDS011;68171;13.882;99.692;2023-06-26T01:20:34;3.50;;;1.25;;
78820;SDS011;68171;13.882;99.692;2023-06-26T01:21:42;4.85;;;1.30;;
78820;SDS011;68171;13.882;99.692;2023-06-26T01:22:59;4.65;;;1.25;;
78820;SDS011;68171;13.882;99.692;2023-06-26T01:24:15;4.10;;;1.88;;
78820;SDS011;68171;13.882;99.692;2023-06-26T01:25:28;8.07;;;2.15;;
78820;SDS011;68171;13.882;99.692;2023-06-26T01:26:47;4.40;;;1.70;;
78820;SDS011;68171;13.882;99.692;2023-06-26T01:27:55;5.00;;;1.60;;
78820;SDS011;68171;13.882;99.692;2023-06-26T01:29:00;4.25;;;1.30;;
78820;SDS011;68171;13.882;99.692;2023-06-26T01:30:08;4.22;;;1.13;;
78820;SDS011;68171;13.882;99.692;2023-06-26T01:31:14;3.30;;;1.10;;
78820;SDS011;68171;13.882;99.692;2023-06-26T01:32:21;5.05;;;1.65;;
78820;SDS011;68171;13.882;99.692;2023-06-26T01:33:26;2.50;;;0.90;;
78820;SDS011;68171;13.882;99.692;2023-06-26T01:34:33;3.90;;;1.20;;
78820;SDS011;68171;13.882;99.692;2023-06-26T01:35:41;4.10;;;1.80;;
78820;SDS011;68171;13.882;99.692;2023-06-26T01:36:48;4.07;;;1.45;;
78820;SDS011;68171;13.882;99.692;2023-06-26T01:37:53;3.70;;;1.20;;
78820;SDS011;68171;13.882;99.692;2023-06-26T01:38:59;5.17;;;1.70;;
78820;SDS011;68171;13.882;99.692;2023-06-26T01:40:03;3.50;;;1.20;;
78820;SDS011;68171;13.882;99.692;2023-06-26T01:41:10;3.25;;;1.00;;
78820;SDS011;68171;13.882;99.692;2023-06-26T01:42:17;3.47;;;1.17;;
78820;SDS011;68171;13.882;99.692;2023-06-26T01:43:24;4.70;;;1.10;;
78820;SDS011;68171;13.882;99.692;2023-06-26T01:44:32;4.65;;;1.90;;
78820;SDS011;68171;13.882;99.692;2023-06-26T01:45:42;8.88;;;3.60;;
78820;SDS011;68171;13.882;99.692;2023-06-26T01:46:48;49.58;;;26.50;;
78820;SDS011;68171;13.882;99.692;2023-06-26T01:47:59;160.48;;;88.68;;
78820;SDS011;68171;13.882;99.692;2023-06-26T01:49:07;41.25;;;22.60;;
78820;SDS011;68171;13.882;99.692;2023-06-26T01:50:17;91.37;;;42.30;;
78820;SDS011;68171;13.882;99.692;2023-06-26T01:51:25;42.10;;;20.38;;
78820;SDS011;68171;13.882;99.692;2023-06-26T01:52:35;55.72;;;30.05;;
78820;SDS011;68171;13.882;99.692;2023-06-26T01:53:45;156.13;;;87.28;;
78820;SDS011;68171;13.882;99.692;2023-06-26T01:54:55;118.43;;;69.57;;
78820;SDS011;68171;13.882;99.692;2023-06-26T01:56:11;52.13;;;27.27;;
78820;SDS011;68171;13.882;99.692;2023-06-26T01:57:19;13.63;;;6.40;;
78820;SDS011;68171;13.882;99.692;2023-06-26T01:58:27;13.35;;;6.68;;
78820;SDS011;68171;13.882;99.692;2023-06-26T01:59:32;7.38;;;3.65;;
78820;SDS011;68171;13.882;99.692;2023-06-26T02:00:38;6.97;;;3.63;;
78820;SDS011;68171;13.882;99.692;2023-06-26T02:01:43;7.40;;;2.87;;
78820;SDS011;68171;13.882;99.692;2023-06-26T02:02:49;9.68;;;3.88;;
78820;SDS011;68171;13.882;99.692;2023-06-26T02:03:54;8.60;;;2.80;;
78820;SDS011;68171;13.882;99.692;2023-06-26T02:05:00;6.20;;;2.30;;
78820;SDS011;68171;13.882;99.692;2023-06-26T02:06:05;6.03;;;2.58;;
78820;SDS011;68171;13.882;99.692;2023-06-26T02:07:11;8.38;;;3.30;;
78820;SDS011;68171;13.882;99.692;2023-06-26T02:08:16;69.53;;;35.08;;
78820;SDS011;68171;13.882;99.692;2023-06-26T02:09:22;8.20;;;4.03;;
78820;SDS011;68171;13.882;99.692;2023-06-26T02:10:27;5.28;;;2.03;;
78820;SDS011;68171;13.882;99.692;2023-06-26T02:11:34;5.38;;;1.27;;
78820;SDS011;68171;13.882;99.692;2023-06-26T02:12:41;19.00;;;8.77;;
78820;SDS011;68171;13.882;99.692;2023-06-26T02:13:47;4.53;;;1.55;;
78820;SDS011;68171;13.882;99.692;2023-06-26T02:14:52;3.92;;;1.52;;
78820;SDS011;68171;13.882;99.692;2023-06-26T02:15:59;5.15;;;1.50;;
78820;SDS011;68171;13.882;99.692;2023-06-26T02:17:04;4.78;;;1.00;;
78820;SDS011;68171;13.882;99.692;2023-06-26T02:18:11;4.82;;;1.25;;
78820;SDS011;68171;13.882;99.692;2023-06-26T02:19:18;15.57;;;8.07;;
78820;SDS011;68171;13.882;99.692;2023-06-26T02:20:24;9.30;;;2.47;;
78820;SDS011;68171;13.882;99.692;2023-06-26T02:21:30;5.32;;;2.53;;
78820;SDS011;68171;13.882;99.692;2023-06-26T02:22:35;4.78;;;1.27;;
78820;SDS011;68171;13.882;99.692;2023-06-26T02:23:41;5.40;;;1.60;;
78820;SDS011;68171;13.882;99.692;2023-06-26T02:24:46;8.43;;;4.53;;
78820;SDS011;68171;13.882;99.692;2023-06-26T02:25:54;20.25;;;9.75;;
78820;SDS011;68171;13.882;99.692;2023-06-26T02:26:58;11.50;;;4.15;;
78820;SDS011;68171;13.882;99.692;2023-06-26T02:28:07;8.55;;;1.73;;
78820;SDS011;68171;13.882;99.692;2023-06-26T02:29:13;4.85;;;1.40;;
78820;SDS011;68171;13.882;99.692;2023-06-26T02:30:19;6.22;;;2.35;;
78820;SDS011;68171;13.882;99.692;2023-06-26T02:31:25;5.68;;;2.35;;
78820;SDS011;68171;13.882;99.692;2023-06-26T02:32:29;4.82;;;2.15;;
78820;SDS011;68171;13.882;99.692;2023-06-26T02:33:36;5.97;;;2.20;;
78820;SDS011;68171;13.882;99.692;2023-06-26T02:34:40;10.20;;;2.80;;
78820;SDS011;68171;13.882;99.692;2023-06-26T02:35:47;5.93;;;2.70;;
78820;SDS011;68171;13.882;99.692;2023-06-26T02:36:53;5.82;;;2.50;;
78820;SDS011;68171;13.882;99.692;2023-06-26T02:37:59;5.00;;;1.58;;
78820;SDS011;68171;13.882;99.692;2023-06-26T02:39:03;5.68;;;2.20;;
78820;SDS011;68171;13.882;99.692;2023-06-26T02:40:10;4.45;;;1.20;;
78820;SDS011;68171;13.882;99.692;2023-06-26T02:41:14;3.63;;;1.20;;
78820;SDS011;68171;13.882;99.692;2023-06-26T02:42:21;4.85;;;2.00;;
78820;SDS011;68171;13.882;99.692;2023-06-26T02:43:28;4.18;;;1.50;;
78820;SDS011;68171;13.882;99.692;2023-06-26T02:44:34;4.20;;;1.33;;
78820;SDS011;68171;13.882;99.692;2023-06-26T02:45:39;4.00;;;1.00;;
78820;SDS011;68171;13.882;99.692;2023-06-26T02:46:45;4.20;;;1.40;;
78820;SDS011;68171;13.882;99.692;2023-06-26T02:47:50;4.47;;;1.40;;
78820;SDS011;68171;13.882;99.692;2023-06-26T02:48:56;4.85;;;1.48;;
78820;SDS011;68171;13.882;99.692;2023-06-26T02:50:01;3.00;;;0.90;;
78820;SDS011;68171;13.882;99.692;2023-06-26T02:51:07;4.30;;;1.52;;
78820;SDS011;68171;13.882;99.692;2023-06-26T02:52:12;6.25;;;2.70;;
78820;SDS011;68171;13.882;99.692;2023-06-26T02:53:18;7.60;;;2.25;;
78820;SDS011;68171;13.882;99.692;2023-06-26T02:54:23;8.73;;;3.80;;
78820;SDS011;68171;13.882;99.692;2023-06-26T02:55:29;4.53;;;1.30;;
78820;SDS011;68171;13.882;99.692;2023-06-26T02:56:34;4.03;;;1.20;;
78820;SDS011;68171;13.882;99.692;2023-06-26T02:57:48;3.88;;;1.00;;
78820;SDS011;68171;13.882;99.692;2023-06-26T02:58:55;3.05;;;0.90;;
78820;SDS011;68171;13.882;99.692;2023-06-26T03:00:01;2.85;;;1.13;;
78820;SDS011;68171;13.882;99.692;2023-06-26T03:01:06;3.30;;;1.20;;
78820;SDS011;68171;13.882;99.692;2023-06-26T03:02:12;3.47;;;1.02;;
78820;SDS011;68171;13.882;99.692;2023-06-26T03:03:17;3.30;;;0.93;;
78820;SDS011;68171;13.882;99.692;2023-06-26T03:04:23;5.50;;;1.80;;
78820;SDS011;68171;13.882;99.692;2023-06-26T03:05:28;4.80;;;1.23;;
78820;SDS011;68171;13.882;99.692;2023-06-26T03:06:34;8.18;;;1.73;;
78820;SDS011;68171;13.882;99.692;2023-06-26T03:07:39;5.37;;;1.27;;
78820;SDS011;68171;13.882;99.692;2023-06-26T03:08:45;3.65;;;1.00;;
78820;SDS011;68171;13.882;99.692;2023-06-26T03:09:50;5.22;;;2.08;;
78820;SDS011;68171;13.882;99.692;2023-06-26T03:10:56;6.03;;;2.20;;
78820;SDS011;68171;13.882;99.692;2023-06-26T03:12:01;4.00;;;1.30;;
78820;SDS011;68171;13.882;99.692;2023-06-26T03:13:08;3.85;;;1.50;;
78820;SDS011;68171;13.882;99.692;2023-06-26T03:14:14;7.38;;;1.95;;
78820;SDS011;68171;13.882;99.692;2023-06-26T03:15:21;5.53;;;1.88;;
78820;SDS011;68171;13.882;99.692;2023-06-26T03:16:25;4.07;;;1.45;;
78820;SDS011;68171;13.882;99.692;2023-06-26T03:17:32;7.38;;;1.50;;
78820;SDS011;68171;13.882;99.692;2023-06-26T03:18:37;5.40;;;1.40;;
78820;SDS011;68171;13.882;99.692;2023-06-26T03:19:43;4.18;;;1.40;;
78820;SDS011;68171;13.882;99.692;2023-06-26T03:20:47;5.50;;;1.38;;
78820;SDS011;68171;13.882;99.692;2023-06-26T03:21:53;4.10;;;1.30;;
78820;SDS011;68171;13.882;99.692;2023-06-26T03:22:58;5.50;;;1.15;;
78820;SDS011;68171;13.882;99.692;2023-06-26T03:24:05;2.67;;;0.70;;
78820;SDS011;68171;13.882;99.692;2023-06-26T03:25:10;3.78;;;1.10;;
78820;SDS011;68171;13.882;99.692;2023-06-26T03:26:16;5.40;;;1.58;;
78820;SDS011;68171;13.882;99.692;2023-06-26T03:27:20;5.30;;;1.50;;
78820;SDS011;68171;13.882;99.692;2023-06-26T03:28:27;6.38;;;1.55;;
78820;SDS011;68171;13.882;99.692;2023-06-26T03:29:35;3.40;;;0.90;;
78820;SDS011;68171;13.882;99.692;2023-06-26T03:30:41;4.43;;;1.40;;
78820;SDS011;68171;13.882;99.692;2023-06-26T03:31:46;3.55;;;1.27;;
78820;SDS011;68171;13.882;99.692;2023-06-26T03:32:52;3.58;;;1.00;;
78820;SDS011;68171;13.882;99.692;2023-06-26T03:33:57;3.53;;;1.15;;
78820;SDS011;68171;13.882;99.692;2023-06-26T03:35:03;3.33;;;0.80;;
78820;SDS011;68171;13.882;99.692;2023-06-26T03:36:09;3.42;;;1.00;;
78820;SDS011;68171;13.882;99.692;2023-06-26T03:37:15;3.58;;;1.00;;
78820;SDS011;68171;13.882;99.692;2023-06-26T03:38:21;8.80;;;1.38;;
78820;SDS011;68171;13.882;99.692;2023-06-26T03:39:27;6.18;;;1.17;;
78820;SDS011;68171;13.882;99.692;2023-06-26T03:40:32;6.73;;;1.77;;
78820;SDS011;68171;13.882;99.692;2023-06-26T03:41:39;7.20;;;1.73;;
78820;SDS011;68171;13.882;99.692;2023-06-26T03:42:43;6.97;;;1.25;;
78820;SDS011;68171;13.882;99.692;2023-06-26T03:43:49;5.13;;;1.77;;
78820;SDS011;68171;13.882;99.692;2023-06-26T03:44:56;6.05;;;2.50;;
78820;SDS011;68171;13.882;99.692;2023-06-26T03:46:02;6.90;;;2.40;;
78820;SDS011;68171;13.882;99.692;2023-06-26T03:47:07;8.50;;;4.22;;
78820;SDS011;68171;13.882;99.692;2023-06-26T03:48:13;5.40;;;1.30;;
78820;SDS011;68171;13.882;99.692;2023-06-26T03:49:18;7.07;;;2.83;;
78820;SDS011;68171;13.882;99.692;2023-06-26T03:50:25;5.43;;;1.75;;
78820;SDS011;68171;13.882;99.692;2023-06-26T03:51:30;7.50;;;2.10;;
78820;SDS011;68171;13.882;99.692;2023-06-26T03:52:36;6.90;;;1.10;;
78820;SDS011;68171;13.882;99.692;2023-06-26T03:53:41;4.80;;;1.20;;
78820;SDS011;68171;13.882;99.692;2023-06-26T03:54:47;5.50;;;1.90;;
78820;SDS011;68171;13.882;99.692;2023-06-26T03:55:52;4.43;;;1.98;;
78820;SDS011;68171;13.882;99.692;2023-06-26T03:56:58;9.88;;;4.22;;
78820;SDS011;68171;13.882;99.692;2023-06-26T03:58:02;11.48;;;5.57;;
78820;SDS011;68171;13.882;99.692;2023-06-26T03:59:09;9.63;;;4.18;;
78820;SDS011;68171;13.882;99.692;2023-06-26T04:00:16;7.03;;;2.00;;
78820;SDS011;68171;13.882;99.692;2023-06-26T04:01:23;3.97;;;1.25;;
78820;SDS011;68171;13.882;99.692;2023-06-26T04:02:29;4.93;;;1.40;;
78820;SDS011;68171;13.882;99.692;2023-06-26T04:03:34;4.57;;;1.30;;
78820;SDS011;68171;13.882;99.692;2023-06-26T04:04:40;3.70;;;1.20;;
78820;SDS011;68171;13.882;99.692;2023-06-26T04:05:45;4.65;;;1.50;;
78820;SDS011;68171;13.882;99.692;2023-06-26T04:06:51;7.65;;;2.20;;
78820;SDS011;68171;13.882;99.692;2023-06-26T04:07:56;7.05;;;2.60;;
78820;SDS011;68171;13.882;99.692;2023-06-26T04:09:02;5.78;;;1.55;;
78820;SDS011;68171;13.882;99.692;2023-06-26T04:10:08;9.15;;;2.85;;
78820;SDS011;68171;13.882;99.692;2023-06-26T04:11:14;7.60;;;2.90;;
78820;SDS011;68171;13.882;99.692;2023-06-26T04:12:19;4.38;;;1.20;;
78820;SDS011;68171;13.882;99.692;2023-06-26T04:13:25;13.13;;;5.87;;
78820;SDS011;68171;13.882;99.692;2023-06-26T04:14:30;19.83;;;10.23;;
78820;SDS011;68171;13.882;99.692;2023-06-26T04:15:38;10.82;;;5.95;;
78820;SDS011;68171;13.882;99.692;2023-06-26T04:16:44;8.88;;;3.10;;
78820;SDS011;68171;13.882;99.692;2023-06-26T04:17:49;3.58;;;1.35;;
78820;SDS011;68171;13.882;99.692;2023-06-26T04:18:55;4.38;;;1.25;;
78820;SDS011;68171;13.882;99.692;2023-06-26T04:20:00;4.15;;;1.30;;
78820;SDS011;68171;13.882;99.692;2023-06-26T04:21:09;5.35;;;1.45;;
78820;SDS011;68171;13.882;99.692;2023-06-26T04:22:14;3.92;;;1.08;;
78820;SDS011;68171;13.882;99.692;2023-06-26T04:23:20;6.25;;;1.00;;
78820;SDS011;68171;13.882;99.692;2023-06-26T04:24:25;4.73;;;1.87;;
78820;SDS011;68171;13.882;99.692;2023-06-26T04:25:31;8.10;;;2.95;;
78820;SDS011;68171;13.882;99.692;2023-06-26T04:26:36;4.93;;;1.20;;
78820;SDS011;68171;13.882;99.692;2023-06-26T04:27:43;12.57;;;2.17;;
78820;SDS011;68171;13.882;99.692;2023-06-26T04:28:50;6.13;;;1.83;;
78820;SDS011;68171;13.882;99.692;2023-06-26T04:29:55;4.38;;;1.38;;
78820;SDS011;68171;13.882;99.692;2023-06-26T04:31:03;7.85;;;3.92;;
78820;SDS011;68171;13.882;99.692;2023-06-26T04:32:08;5.85;;;2.90;;
78820;SDS011;68171;13.882;99.692;2023-06-26T04:33:14;3.97;;;1.73;;
78820;SDS011;68171;13.882;99.692;2023-06-26T04:34:19;9.02;;;4.00;;
78820;SDS011;68171;13.882;99.692;2023-06-26T04:35:26;3.67;;;1.10;;
78820;SDS011;68171;13.882;99.692;2023-06-26T04:36:30;10.40;;;2.30;;
78820;SDS011;68171;13.882;99.692;2023-06-26T04:37:41;7.88;;;2.85;;
78820;SDS011;68171;13.882;99.692;2023-06-26T04:38:48;5.80;;;2.95;;
78820;SDS011;68171;13.882;99.692;2023-06-26T04:39:53;6.80;;;1.95;;
78820;SDS011;68171;13.882;99.692;2023-06-26T04:40:59;4.45;;;1.52;;
78820;SDS011;68171;13.882;99.692;2023-06-26T04:42:04;5.30;;;1.73;;
78820;SDS011;68171;13.882;99.692;2023-06-26T04:43:11;4.88;;;1.10;;
78820;SDS011;68171;13.882;99.692;2023-06-26T04:44:16;3.70;;;1.20;;
78820;SDS011;68171;13.882;99.692;2023-06-26T04:45:24;4.15;;;1.10;;
78820;SDS011;68171;13.882;99.692;2023-06-26T04:46:30;4.33;;;1.10;;
78820;SDS011;68171;13.882;99.692;2023-06-26T04:47:37;4.07;;;1.30;;
78820;SDS011;68171;13.882;99.692;2023-06-26T04:48:43;29.77;;;14.27;;
78820;SDS011;68171;13.882;99.692;2023-06-26T04:49:49;30.98;;;16.58;;
78820;SDS011;68171;13.882;99.692;2023-06-26T04:50:56;26.10;;;13.48;;
78820;SDS011;68171;13.882;99.692;2023-06-26T04:52:02;40.67;;;21.25;;
78820;SDS011;68171;13.882;99.692;2023-06-26T04:53:08;76.10;;;39.55;;
78820;SDS011;68171;13.882;99.692;2023-06-26T04:54:13;24.27;;;13.15;;
78820;SDS011;68171;13.882;99.692;2023-06-26T04:55:20;14.18;;;7.68;;
78820;SDS011;68171;13.882;99.692;2023-06-26T04:56:24;4.45;;;1.85;;
78820;SDS011;68171;13.882;99.692;2023-06-26T04:57:30;5.17;;;1.80;;
78820;SDS011;68171;13.882;99.692;2023-06-26T04:58:35;7.43;;;2.00;;
78820;SDS011;68171;13.882;99.692;2023-06-26T04:59:42;3.90;;;1.70;;
78820;SDS011;68171;13.882;99.692;2023-06-26T05:00:48;3.92;;;1.52;;
78820;SDS011;68171;13.882;99.692;2023-06-26T05:01:55;4.55;;;1.50;;
78820;SDS011;68171;13.882;99.692;2023-06-26T05:03:02;5.20;;;1.80;;
78820;SDS011;68171;13.882;99.692;2023-06-26T05:04:07;5.82;;;1.88;;
78820;SDS011;68171;13.882;99.692;2023-06-26T05:05:14;5.05;;;2.08;;
78820;SDS011;68171;13.882;99.692;2023-06-26T05:06:20;14.23;;;6.38;;
78820;SDS011;68171;13.882;99.692;2023-06-26T05:07:25;15.88;;;6.20;;
78820;SDS011;68171;13.882;99.692;2023-06-26T05:08:31;9.60;;;4.50;;
78820;SDS011;68171;13.882;99.692;2023-06-26T05:09:36;13.00;;;5.90;;
78820;SDS011;68171;13.882;99.692;2023-06-26T05:10:43;7.70;;;2.90;;
78820;SDS011;68171;13.882;99.692;2023-06-26T05:11:49;5.57;;;2.00;;
78820;SDS011;68171;13.882;99.692;2023-06-26T05:12:55;8.27;;;3.42;;
78820;SDS011;68171;13.882;99.692;2023-06-26T05:14:00;6.60;;;2.55;;
78820;SDS011;68171;13.882;99.692;2023-06-26T05:15:06;4.80;;;1.65;;
78820;SDS011;68171;13.882;99.692;2023-06-26T05:16:12;3.90;;;1.23;;
78820;SDS011;68171;13.882;99.692;2023-06-26T05:17:19;4.65;;;2.28;;
78820;SDS011;68171;13.882;99.692;2023-06-26T05:18:24;6.03;;;2.22;;
78820;SDS011;68171;13.882;99.692;2023-06-26T05:19:30;10.17;;;4.97;;
78820;SDS011;68171;13.882;99.692;2023-06-26T05:20:36;15.07;;;7.67;;
78820;SDS011;68171;13.882;99.692;2023-06-26T05:21:42;8.43;;;2.13;;
78820;SDS011;68171;13.882;99.692;2023-06-26T05:22:49;3.50;;;1.30;;
78820;SDS011;68171;13.882;99.692;2023-06-26T05:23:55;5.15;;;2.10;;
78820;SDS011;68171;13.882;99.692;2023-06-26T05:25:03;8.57;;;2.55;;
78820;SDS011;68171;13.882;99.692;2023-06-26T05:26:09;9.50;;;3.65;;
78820;SDS011;68171;13.882;99.692;2023-06-26T05:27:17;19.02;;;6.45;;
78820;SDS011;68171;13.882;99.692;2023-06-26T05:28:24;15.82;;;6.78;;
78820;SDS011;68171;13.882;99.692;2023-06-26T05:29:34;15.48;;;6.68;;
78820;SDS011;68171;13.882;99.692;2023-06-26T05:30:40;12.03;;;5.73;;
78820;SDS011;68171;13.882;99.692;2023-06-26T05:31:47;12.30;;;5.67;;
78820;SDS011;68171;13.882;99.692;2023-06-26T05:32:57;7.03;;;2.92;;
78820;SDS011;68171;13.882;99.692;2023-06-26T05:34:04;6.55;;;2.53;;
78820;SDS011;68171;13.882;99.692;2023-06-26T05:35:11;6.95;;;2.30;;
78820;SDS011;68171;13.882;99.692;2023-06-26T05:36:17;5.50;;;1.90;;
78820;SDS011;68171;13.882;99.692;2023-06-26T05:37:24;4.63;;;1.77;;
78820;SDS011;68171;13.882;99.692;2023-06-26T05:38:31;11.35;;;2.33;;
78820;SDS011;68171;13.882;99.692;2023-06-26T05:39:38;7.13;;;1.70;;
78820;SDS011;68171;13.882;99.692;2023-06-26T05:40:43;3.60;;;1.23;;
78820;SDS011;68171;13.882;99.692;2023-06-26T05:41:50;4.80;;;1.20;;
78820;SDS011;68171;13.882;99.692;2023-06-26T05:42:55;6.23;;;1.60;;
78820;SDS011;68171;13.882;99.692;2023-06-26T05:44:02;4.85;;;1.30;;
78820;SDS011;68171;13.882;99.692;2023-06-26T05:45:07;5.13;;;1.40;;
78820;SDS011;68171;13.882;99.692;2023-06-26T05:46:14;4.15;;;1.35;;
78820;SDS011;68171;13.882;99.692;2023-06-26T05:47:21;3.72;;;1.10;;
78820;SDS011;68171;13.882;99.692;2023-06-26T05:48:29;5.03;;;1.20;;
78820;SDS011;68171;13.882;99.692;2023-06-26T05:49:35;4.15;;;1.20;;
78820;SDS011;68171;13.882;99.692;2023-06-26T05:50:41;3.78;;;1.13;;
78820;SDS011;68171;13.882;99.692;2023-06-26T05:51:48;3.38;;;1.02;;
78820;SDS011;68171;13.882;99.692;2023-06-26T05:52:55;8.03;;;1.10;;
78820;SDS011;68171;13.882;99.692;2023-06-26T05:54:01;3.40;;;1.10;;
78820;SDS011;68171;13.882;99.692;2023-06-26T05:55:07;2.88;;;1.00;;
78820;SDS011;68171;13.882;99.692;2023-06-26T05:56:13;4.45;;;1.13;;
78820;SDS011;68171;13.882;99.692;2023-06-26T05:57:22;3.85;;;1.00;;
78820;SDS011;68171;13.882;99.692;2023-06-26T05:58:28;3.15;;;1.27;;
78820;SDS011;68171;13.882;99.692;2023-06-26T05:59:34;4.30;;;1.27;;
78820;SDS011;68171;13.882;99.692;2023-06-26T06:00:41;4.55;;;1.20;;
78820;SDS011;68171;13.882;99.692;2023-06-26T06:01:48;3.65;;;1.17;;
78820;SDS011;68171;13.882;99.692;2023-06-26T06:02:54;2.92;;;0.93;;
78820;SDS011;68171;13.882;99.692;2023-06-26T06:04:02;4.13;;;1.10;;
78820;SDS011;68171;13.882;99.692;2023-06-26T06:05:08;3.83;;;1.33;;
78820;SDS011;68171;13.882;99.692;2023-06-26T06:06:13;8.27;;;1.20;;
78820;SDS011;68171;13.882;99.692;2023-06-26T06:07:20;4.63;;;1.23;;
78820;SDS011;68171;13.882;99.692;2023-06-26T06:08:24;5.00;;;1.33;;
78820;SDS011;68171;13.882;99.692;2023-06-26T06:09:31;3.65;;;1.23;;
78820;SDS011;68171;13.882;99.692;2023-06-26T06:10:36;4.93;;;1.10;;
78820;SDS011;68171;13.882;99.692;2023-06-26T06:11:43;4.65;;;1.13;;
78820;SDS011;68171;13.882;99.692;2023-06-26T06:12:49;3.80;;;1.30;;
78820;SDS011;68171;13.882;99.692;2023-06-26T06:13:55;3.35;;;1.00;;
78820;SDS011;68171;13.882;99.692;2023-06-26T06:15:02;3.37;;;1.00;;
78820;SDS011;68171;13.882;99.692;2023-06-26T06:16:07;3.67;;;0.87;;
78820;SDS011;68171;13.882;99.692;2023-06-26T06:17:13;3.85;;;1.30;;
78820;SDS011;68171;13.882;99.692;2023-06-26T06:18:18;2.50;;;0.98;;
78820;SDS011;68171;13.882;99.692;2023-06-26T06:19:26;4.10;;;1.02;;
78820;SDS011;68171;13.882;99.692;2023-06-26T06:20:31;4.10;;;1.17;;
78820;SDS011;68171;13.882;99.692;2023-06-26T06:21:38;3.58;;;1.20;;
78820;SDS011;68171;13.882;99.692;2023-06-26T06:22:43;3.72;;;0.98;;
78820;SDS011;68171;13.882;99.692;2023-06-26T06:23:49;3.20;;;1.00;;
78820;SDS011;68171;13.882;99.692;2023-06-26T06:24:54;3.60;;;1.10;;
78820;SDS011;68171;13.882;99.692;2023-06-26T06:26:01;5.63;;;1.33;;
78820;SDS011;68171;13.882;99.692;2023-06-26T06:27:06;4.10;;;1.00;;
78820;SDS011;68171;13.882;99.692;2023-06-26T06:28:12;5.25;;;1.10;;
78820;SDS011;68171;13.882;99.692;2023-06-26T06:29:19;6.05;;;1.30;;
78820;SDS011;68171;13.882;99.692;2023-06-26T06:30:24;4.05;;;1.38;;
78820;SDS011;68171;13.882;99.692;2023-06-26T06:31:36;3.53;;;1.20;;
78820;SDS011;68171;13.882;99.692;2023-06-26T06:32:41;4.20;;;1.27;;